Time;durP1;ratioP1;P1;durP2;ratioP2;P2;SDS_P1;SDS_P2;PMS_P1;PMS_P2;Temp;Humidity;BMP_temperature;BMP_pressure;BME280_temperature;BME280_humidity;BME280_pressure;Samples;Min_cycle;Max_cycle;Signal;HPM_P1;HPM_P2
2022/01/05 00:01:18;;;;;;;21.02;7.20;;;;;;;3.45;100.00;90268.28;4992181;28;20034;-65
2022/01/05 00:03:43;;;;;;;12.52;6.63;;;;;;;3.56;100.00;90269.75;4992102;28;20104;-64
2022/01/05 00:06:09;;;;;;;8.90;5.22;;;;;;;3.55;100.00;90262.91;4992013;28;20042;-65
2022/01/05 00:08:34;;;;;;;9.40;6.20;;;;;;;3.45;100.00;90257.78;4992154;28;20453;-65
2022/01/05 00:11:00;;;;;;;9.95;5.95;;;;;;;3.39;100.00;90266.81;4992103;28;20034;-64
2022/01/05 00:13:26;;;;;;;15.40;7.30;;;;;;;3.34;100.00;90256.34;4992004;28;20026;-64
2022/01/05 00:15:51;;;;;;;16.45;6.65;;;;;;;3.35;100.00;90269.22;4992082;28;20038;-65
2022/01/05 00:18:17;;;;;;;19.92;7.70;;;;;;;3.35;100.00;90265.81;4992004;28;20064;-65
2022/01/05 00:20:43;;;;;;;21.45;8.82;;;;;;;3.30;100.00;90258.75;4991945;28;20035;-65
2022/01/05 00:23:09;;;;;;;36.70;12.32;;;;;;;3.14;100.00;90257.34;4991790;28;20030;-64
2022/01/05 00:25:35;;;;;;;32.85;13.60;;;;;;;3.12;100.00;90255.00;4991955;28;20033;-64
2022/01/05 00:28:01;;;;;;;18.10;8.77;;;;;;;3.09;100.00;90247.69;4991971;28;20493;-64
2022/01/05 00:30:26;;;;;;;13.90;7.80;;;;;;;3.02;100.00;90263.03;4992148;28;20119;-64
2022/01/05 00:32:52;;;;;;;24.90;11.00;;;;;;;2.97;100.00;90265.69;4991798;28;20477;-65
2022/01/05 00:35:18;;;;;;;18.73;9.93;;;;;;;2.84;100.00;90255.81;5006923;28;20042;-65
2022/01/05 00:37:44;;;;;;;54.85;29.33;;;;;;;2.77;100.00;90271.94;4991833;28;20428;-65
2022/01/05 00:40:10;;;;;;;21.65;11.88;;;;;;;2.64;100.00;90265.47;4991860;28;20108;-65
2022/01/05 00:42:35;;;;;;;17.52;10.20;;;;;;;2.57;100.00;90283.41;4994324;28;20029;-65
2022/01/05 00:45:01;;;;;;;14.93;8.50;;;;;;;2.68;100.00;90284.06;4995810;28;20034;-65
2022/01/05 00:47:27;;;;;;;13.48;7.78;;;;;;;2.79;100.00;90266.38;4995718;28;20030;-65
2022/01/05 00:49:52;;;;;;;10.43;6.88;;;;;;;2.90;100.00;90271.28;4995726;28;20026;-65
2022/01/05 00:52:18;;;;;;;11.15;7.28;;;;;;;3.03;100.00;90264.59;4995571;28;20113;-64
2022/01/05 00:54:45;;;;;;;10.05;6.50;;;;;;;3.17;100.00;90265.47;4995604;28;20034;-65
2022/01/05 00:57:11;;;;;;;12.57;8.02;;;;;;;3.30;100.00;90266.63;4995648;28;20500;-64
2022/01/05 00:59:37;;;;;;;9.27;7.20;;;;;;;3.35;100.00;90263.97;4995596;28;20065;-65
2022/01/05 01:02:03;;;;;;;10.75;6.85;;;;;;;3.45;100.00;90265.66;4995352;28;20026;-65
2022/01/05 01:04:29;;;;;;;12.20;7.43;;;;;;;3.48;100.00;90265.13;4995285;28;20030;-65
2022/01/05 01:06:54;;;;;;;13.55;8.40;;;;;;;3.48;100.00;90254.63;4995424;28;20038;-65
2022/01/05 01:09:20;;;;;;;12.05;6.32;;;;;;;3.47;100.00;90247.75;4995432;28;20084;-65
2022/01/05 01:11:46;;;;;;;12.27;7.53;;;;;;;3.44;100.00;90248.31;4995321;28;20551;-65
2022/01/05 01:14:12;;;;;;;11.77;6.88;;;;;;;3.38;100.00;90252.09;4995178;28;20061;-65
2022/01/05 01:16:38;;;;;;;10.15;6.88;;;;;;;3.29;100.00;90251.91;4995487;28;20109;-65
2022/01/05 01:19:04;;;;;;;9.50;6.85;;;;;;;3.19;100.00;90246.81;4995207;28;20386;-65
2022/01/05 01:21:29;;;;;;;10.77;6.35;;;;;;;3.15;100.00;90243.16;4995117;28;20034;-64
2022/01/05 01:23:55;;;;;;;10.07;6.68;;;;;;;2.81;100.00;90249.28;4994931;28;20382;-64
2022/01/05 01:26:30;;;;;;;6.15;4.57;;;;;;;2.38;100.00;90243.94;4995372;28;20050;-64
2022/01/05 01:28:57;;;;;;;10.35;5.05;;;;;;;2.17;100.00;90247.75;4995313;28;20034;-64
2022/01/05 01:31:24;;;;;;;9.48;4.88;;;;;;;2.06;100.00;90246.28;4994941;28;20539;-64
2022/01/05 01:33:49;;;;;;;9.02;5.90;;;;;;;1.87;100.00;90243.53;4994758;28;20034;-64
2022/01/05 01:36:15;;;;;;;8.82;5.70;;;;;;;1.80;100.00;90238.59;4994874;28;20045;-64
2022/01/05 01:38:42;;;;;;;7.85;5.20;;;;;;;1.78;100.00;90239.94;4994821;28;20030;-64
2022/01/05 01:41:09;;;;;;;9.45;5.43;;;;;;;1.68;100.00;90234.72;4994726;28;20053;-64
2022/01/05 01:43:34;;;;;;;8.32;4.90;;;;;;;1.75;100.00;90235.22;4994709;28;20110;-64
2022/01/05 01:46:01;;;;;;;5.85;3.97;;;;;;;1.84;100.00;90223.09;4994718;28;20113;-64
2022/01/05 01:48:26;;;;;;;6.35;4.72;;;;;;;1.80;100.00;90241.22;4994671;28;20105;-64
2022/01/05 01:50:52;;;;;;;7.38;4.40;;;;;;;1.81;100.00;90231.50;4994636;28;20109;-64
2022/01/05 01:53:18;;;;;;;5.57;3.90;;;;;;;1.92;100.00;90233.00;4993337;28;20054;-64
2022/01/05 01:55:43;;;;;;;4.88;3.63;;;;;;;1.90;100.00;90227.25;4994496;28;20066;-64
2022/01/05 01:58:09;;;;;;;6.50;3.60;;;;;;;2.03;100.00;90229.25;4993214;28;20045;-64
2022/01/05 02:00:35;;;;;;;4.88;3.25;;;;;;;1.99;100.00;90230.06;4994401;28;20845;-64
2022/01/05 02:03:01;;;;;;;6.78;3.83;;;;;;;2.14;100.00;90245.69;4994433;28;20030;-65
2022/01/05 02:05:27;;;;;;;5.57;3.58;;;;;;;2.23;100.00;90238.03;4994133;28;20524;-64
2022/01/05 02:07:52;;;;;;;6.50;3.78;;;;;;;2.25;100.00;90239.31;4994269;28;20018;-64
2022/01/05 02:10:18;;;;;;;6.85;4.03;;;;;;;2.16;100.00;90227.06;4994182;28;20471;-64
2022/01/05 02:12:43;;;;;;;5.97;3.50;;;;;;;2.13;100.00;90224.97;4994122;28;20034;-64
2022/01/05 02:15:10;;;;;;;5.10;3.90;;;;;;;2.12;100.00;90229.44;4994177;28;20038;-64
2022/01/05 02:20:13;;;;;;;5.28;3.38;;;;;;;2.24;100.00;90226.47;4994008;28;20027;-64
2022/01/05 02:22:39;;;;;;;3.58;2.85;;;;;;;2.34;100.00;90221.13;4993805;28;20404;-64
2022/01/05 02:25:04;;;;;;;4.78;3.47;;;;;;;2.40;100.00;90227.91;4992715;28;20034;-66
2022/01/05 02:27:30;;;;;;;9.27;3.55;;;;;;;2.50;100.00;90209.41;4994210;28;20408;-66
2022/01/05 02:29:56;;;;;;;5.57;3.50;;;;;;;2.64;100.00;90214.81;4993934;28;20527;-66
2022/01/05 02:32:21;;;;;;;6.68;3.15;;;;;;;2.74;100.00;90219.97;4993738;28;20037;-64
2022/01/05 02:34:47;;;;;;;4.82;3.47;;;;;;;2.80;100.00;90220.69;4993804;28;20034;-65
2022/01/05 02:37:12;;;;;;;4.50;3.30;;;;;;;2.92;100.00;90216.63;4993790;28;20448;-65
2022/01/05 02:39:38;;;;;;;4.38;3.35;;;;;;;2.89;100.00;90222.44;4994025;28;20022;-64
2022/01/05 02:42:03;;;;;;;5.10;3.53;;;;;;;2.91;100.00;90230.03;4993439;28;20031;-64
2022/01/05 02:44:29;;;;;;;5.07;3.67;;;;;;;2.82;100.00;90221.19;4993434;28;20125;-64
2022/01/05 02:46:54;;;;;;;5.63;3.70;;;;;;;2.82;100.00;90224.59;4993598;28;20451;-64
2022/01/05 02:49:20;;;;;;;5.93;3.53;;;;;;;2.83;100.00;90223.53;4993474;28;20046;-64
2022/01/05 02:51:45;;;;;;;6.53;4.38;;;;;;;2.76;100.00;90228.34;4993781;28;20036;-64
2022/01/05 02:54:11;;;;;;;8.90;5.43;;;;;;;2.63;100.00;90215.88;4993340;28;20489;-64
2022/01/05 02:56:36;;;;;;;7.75;5.00;;;;;;;2.62;100.00;90207.22;4993362;28;20053;-64
2022/01/05 02:59:03;;;;;;;8.68;4.75;;;;;;;2.67;100.00;90214.25;4993265;28;20030;-64
2022/01/05 03:01:28;;;;;;;7.10;4.55;;;;;;;2.61;100.00;90213.53;4993470;28;20018;-64
2022/01/05 03:06:22;;;;;;;7.38;4.72;;;;;;;2.60;100.00;90216.44;5151250;23;20112;-62
2022/01/05 03:08:47;;;;;;;8.38;5.38;;;;;;;2.55;100.00;90201.50;5012727;28;20030;-62
2022/01/05 03:11:13;;;;;;;8.98;5.38;;;;;;;2.50;100.00;90208.63;5012459;28;20108;-62
2022/01/05 03:13:38;;;;;;;8.52;5.03;;;;;;;2.44;100.00;90210.53;5012659;28;20026;-62
2022/01/05 03:16:04;;;;;;;9.63;5.40;;;;;;;2.40;100.00;90212.16;5012231;28;20112;-62
2022/01/05 03:18:30;;;;;;;10.23;5.43;;;;;;;2.37;100.00;90207.47;5012268;28;20055;-62
2022/01/05 03:20:55;;;;;;;8.55;4.97;;;;;;;2.33;100.00;90194.09;5012266;28;20038;-62
2022/01/05 03:23:20;;;;;;;10.45;5.68;;;;;;;2.30;100.00;90193.88;5012181;28;20022;-62
2022/01/05 03:25:46;;;;;;;11.73;6.07;;;;;;;2.30;100.00;90188.63;5012129;28;20523;-62
2022/01/05 03:28:12;;;;;;;8.68;5.55;;;;;;;2.31;100.00;90195.44;5012125;28;20033;-62
2022/01/05 03:30:38;;;;;;;9.23;4.88;;;;;;;2.28;100.00;90196.00;5012090;28;20030;-62
2022/01/05 03:33:12;;;;;;;9.20;4.68;;;;;;;2.27;100.00;90197.84;5012008;28;20025;-62
2022/01/05 03:35:43;;;;;;;9.68;6.18;;;;;;;2.19;100.00;90190.53;5011869;28;20033;-62
2022/01/05 03:38:10;;;;;;;9.95;6.10;;;;;;;2.22;100.00;90202.34;5011978;28;20057;-62
2022/01/05 03:40:36;;;;;;;15.18;8.30;;;;;;;2.28;100.00;90202.03;5011925;28;20041;-62
2022/01/05 03:43:03;;;;;;;18.02;9.18;;;;;;;2.25;100.00;90199.19;5011972;28;20018;-62
2022/01/05 03:45:29;;;;;;;11.75;7.32;;;;;;;2.18;100.00;90198.69;5012039;28;20088;-62
2022/01/05 03:47:55;;;;;;;15.68;8.00;;;;;;;2.11;100.00;90175.41;5011815;28;20060;-62
2022/01/05 03:50:20;;;;;;;19.73;8.73;;;;;;;2.17;100.00;90176.13;5011701;28;20061;-62
2022/01/05 03:52:46;;;;;;;26.52;9.63;;;;;;;2.24;100.00;90190.53;5026831;28;20036;-62
2022/01/05 03:55:11;;;;;;;22.45;9.57;;;;;;;2.28;100.00;90178.41;5011710;28;20403;-62
2022/01/05 03:57:37;;;;;;;18.48;8.32;;;;;;;2.27;100.00;90173.44;5011643;28;20032;-62
2022/01/05 04:00:04;;;;;;;12.38;6.15;;;;;;;2.33;100.00;90173.09;5011682;28;20598;-62
2022/01/05 04:02:30;;;;;;;13.10;5.60;;;;;;;2.35;100.00;90178.84;5011860;28;20026;-62
2022/01/05 04:04:56;;;;;;;10.95;5.63;;;;;;;2.23;100.00;90170.59;5011337;28;20060;-62
2022/01/05 04:07:21;;;;;;;6.50;4.53;;;;;;;2.15;100.00;90176.41;5011854;28;20097;-62
2022/01/05 04:09:47;;;;;;;6.75;4.30;;;;;;;2.04;100.00;90175.72;5011482;28;20468;-62
2022/01/05 04:12:13;;;;;;;7.65;4.15;;;;;;;2.01;100.00;90165.78;5011343;28;20038;-61
2022/01/05 04:14:38;;;;;;;6.57;4.82;;;;;;;2.00;100.00;90172.09;5011355;28;20527;-62
2022/01/05 04:17:04;;;;;;;6.32;4.20;;;;;;;2.08;100.00;90163.63;5010805;28;20029;-62
2022/01/05 04:19:31;;;;;;;7.28;4.30;;;;;;;2.10;100.00;90158.09;5011613;28;20049;-61
2022/01/05 04:21:57;;;;;;;8.23;4.50;;;;;;;2.08;100.00;90157.59;5011293;28;20025;-61
2022/01/05 04:24:22;;;;;;;7.80;4.18;;;;;;;2.09;100.00;90146.06;5011188;28;20113;-61
2022/01/05 04:26:48;;;;;;;6.80;5.35;;;;;;;2.09;100.00;90161.78;5011251;28;20018;-62
2022/01/05 04:29:13;;;;;;;6.47;4.43;;;;;;;2.06;100.00;90152.66;5011278;28;20030;-62
2022/01/05 04:31:39;;;;;;;7.20;5.00;;;;;;;1.97;100.00;90151.66;5011122;28;20022;-61
2022/01/05 04:34:04;;;;;;;5.28;4.30;;;;;;;1.88;100.00;90149.91;5011116;28;20116;-62
2022/01/05 04:36:30;;;;;;;7.68;4.47;;;;;;;1.82;100.00;90151.78;5011231;28;20433;-63
2022/01/05 04:38:55;;;;;;;8.55;5.10;;;;;;;1.69;100.00;90152.41;5011177;28;20041;-63
2022/01/05 04:41:21;;;;;;;6.32;4.65;;;;;;;1.62;100.00;90146.72;5011181;28;20026;-62
2022/01/05 04:43:46;;;;;;;8.30;5.15;;;;;;;1.58;100.00;90145.66;5011135;28;20081;-62
2022/01/05 04:46:12;;;;;;;28.08;16.25;;;;;;;1.52;100.00;90146.78;5010893;28;20111;-63
2022/01/05 04:48:37;;;;;;;8.02;6.07;;;;;;;1.53;100.00;90148.34;5010946;28;20034;-63
2022/01/05 04:51:03;;;;;;;20.20;11.93;;;;;;;1.44;100.00;90154.19;5010799;28;20159;-63
2022/01/05 04:53:29;;;;;;;12.52;8.30;;;;;;;1.46;100.00;90149.44;5011230;28;20127;-63
2022/01/05 04:55:55;;;;;;;7.45;4.78;;;;;;;1.40;100.00;90147.09;5011159;28;20022;-63
2022/01/05 04:58:20;;;;;;;7.10;4.45;;;;;;;1.42;100.00;90151.03;5010938;28;20045;-63
2022/01/05 05:00:46;;;;;;;6.90;3.90;;;;;;;1.41;100.00;90146.06;5011093;28;20026;-63
2022/01/05 05:03:12;;;;;;;5.57;4.40;;;;;;;1.32;100.00;90156.34;5011021;28;20487;-63
2022/01/05 05:05:38;;;;;;;7.90;5.05;;;;;;;1.33;100.00;90167.59;5010630;28;20042;-63
2022/01/05 05:08:03;;;;;;;17.98;9.73;;;;;;;1.32;100.00;90176.53;5010915;28;20119;-63
2022/01/05 05:10:29;;;;;;;22.40;14.80;;;;;;;1.27;100.00;90177.34;5010837;28;20026;-63
2022/01/05 05:12:54;;;;;;;29.95;16.50;;;;;;;1.38;100.00;90175.41;5010818;28;20029;-63
2022/01/05 05:15:20;;;;;;;17.40;10.98;;;;;;;1.47;100.00;90187.69;5010803;28;20041;-63
2022/01/05 05:17:45;;;;;;;14.57;8.20;;;;;;;1.43;100.00;90173.56;5010794;28;20029;-63
2022/01/05 05:20:11;;;;;;;20.05;12.38;;;;;;;1.35;100.00;90178.59;5010598;28;20411;-63
2022/01/05 05:22:37;;;;;;;19.85;12.05;;;;;;;1.36;100.00;90175.69;5010752;28;20125;-63
2022/01/05 05:25:06;;;;;;;14.85;10.23;;;;;;;1.33;100.00;90164.97;5010668;28;20503;-63
2022/01/05 05:27:31;;;;;;;23.20;9.73;;;;;;;1.27;100.00;90179.19;5011568;28;20033;-63
2022/01/05 05:29:57;;;;;;;12.18;7.55;;;;;;;1.25;100.00;90183.88;5014393;28;20052;-63
2022/01/05 05:32:22;;;;;;;10.38;6.28;;;;;;;1.20;100.00;90180.25;5014280;28;20061;-63
2022/01/05 05:34:48;;;;;;;12.32;7.00;;;;;;;1.12;100.00;90180.03;5014200;28;20120;-63
2022/01/05 05:37:15;;;;;;;32.33;18.30;;;;;;;1.06;100.00;90189.75;5014172;28;20547;-62
2022/01/05 05:39:41;;;;;;;43.45;24.52;;;;;;;1.07;100.00;90195.75;5014497;28;20044;-64
2022/01/05 05:42:08;;;;;;;28.45;17.65;;;;;;;0.95;100.00;90195.28;5014160;28;20053;-64
2022/01/05 05:44:33;;;;;;;22.02;13.85;;;;;;;0.77;100.00;90202.69;5014012;28;20029;-62
2022/01/05 05:46:59;;;;;;;23.70;11.40;;;;;;;0.64;100.00;90212.97;5014128;28;20034;-64
2022/01/05 05:49:24;;;;;;;17.88;9.07;;;;;;;0.45;100.00;90205.66;5013942;28;20563;-64
2022/01/05 05:51:50;;;;;;;34.30;20.20;;;;;;;0.46;100.00;90209.06;5013699;28;20069;-63
2022/01/05 05:54:15;;;;;;;34.67;19.40;;;;;;;0.56;100.00;90209.81;5013812;28;20038;-63
2022/01/05 05:56:41;;;;;;;39.65;21.00;;;;;;;0.69;100.00;90223.41;5013897;28;20026;-63
2022/01/05 05:59:06;;;;;;;28.40;15.48;;;;;;;0.79;100.00;90220.75;5013788;28;20033;-62
2022/01/05 06:01:32;;;;;;;24.23;13.75;;;;;;;0.84;100.00;90221.53;5013702;28;20034;-63
2022/01/05 06:04:00;;;;;;;30.92;16.73;;;;;;;0.89;100.00;90223.34;5013658;28;20029;-64
2022/01/05 06:06:27;;;;;;;58.88;28.77;;;;;;;0.97;100.00;90238.50;5013482;28;20083;-63
2022/01/05 06:08:53;;;;;;;38.35;24.23;;;;;;;0.99;100.00;90239.03;5013725;28;20476;-63
2022/01/05 06:11:19;;;;;;;33.72;20.45;;;;;;;1.01;100.00;90241.38;5013567;28;20030;-63
2022/01/05 06:13:44;;;;;;;37.97;19.17;;;;;;;1.04;100.00;90225.91;5013569;28;20088;-63
2022/01/05 06:16:10;;;;;;;28.58;16.42;;;;;;;1.13;100.00;90234.00;5013472;28;20569;-63
2022/01/05 06:18:35;;;;;;;29.75;17.45;;;;;;;1.21;100.00;90236.03;5013427;28;20407;-63
2022/01/05 06:21:00;;;;;;;29.15;16.27;;;;;;;1.19;100.00;90232.91;5013395;28;20030;-63
2022/01/05 06:23:26;;;;;;;43.47;22.00;;;;;;;1.26;100.00;90233.38;5013294;28;20029;-62
2022/01/05 06:25:51;;;;;;;19.65;11.75;;;;;;;1.34;100.00;90232.84;5013219;28;20092;-62
2022/01/05 06:28:17;;;;;;;18.33;9.27;;;;;;;1.33;100.00;90241.75;5013351;28;20029;-62
2022/01/05 06:30:43;;;;;;;18.73;10.30;;;;;;;1.38;100.00;90233.84;5013292;28;20499;-63
2022/01/05 06:33:08;;;;;;;14.65;8.65;;;;;;;1.53;100.00;90232.22;5013169;28;20018;-63
2022/01/05 06:35:34;;;;;;;30.77;17.23;;;;;;;1.69;100.00;90239.72;5013082;28;20038;-63
2022/01/05 06:38:00;;;;;;;42.10;20.35;;;;;;;1.92;100.00;90234.84;5013120;28;20033;-63
2022/01/05 06:40:26;;;;;;;19.63;11.27;;;;;;;2.01;100.00;90235.81;5012438;28;20499;-63
2022/01/05 06:42:51;;;;;;;20.15;11.65;;;;;;;2.11;100.00;90238.38;5013063;28;20022;-63
2022/01/05 06:45:17;;;;;;;29.05;15.63;;;;;;;2.30;100.00;90230.59;5013042;28;20069;-63
2022/01/05 06:47:42;;;;;;;25.25;14.68;;;;;;;2.32;100.00;90229.28;5012907;28;20560;-62
2022/01/05 06:50:09;;;;;;;28.13;15.68;;;;;;;2.33;100.00;90215.09;5012853;28;20038;-63
2022/01/05 06:52:36;;;;;;;36.50;20.75;;;;;;;2.51;100.00;90239.06;5012713;28;20052;-63
2022/01/05 06:55:03;;;;;;;32.22;19.55;;;;;;;2.64;100.00;90230.56;5012685;28;20108;-63
2022/01/05 06:57:28;;;;;;;24.67;14.55;;;;;;;2.64;100.00;90225.31;5012716;28;20525;-63
2022/01/05 06:59:54;;;;;;;23.42;14.35;;;;;;;2.80;100.00;90228.56;5012781;28;20116;-63
2022/01/05 07:02:19;;;;;;;54.25;31.80;;;;;;;2.97;100.00;90234.16;5012440;28;20463;-63
2022/01/05 07:04:45;;;;;;;90.60;42.85;;;;;;;3.05;100.00;90220.41;5012193;28;20092;-64
2022/01/05 07:07:10;;;;;;;152.32;59.33;;;;;;;3.10;100.00;90222.19;5011377;28;20037;-63
2022/01/05 07:09:35;;;;;;;56.30;27.13;;;;;;;3.20;100.00;90224.72;5012565;28;20108;-64
2022/01/05 07:12:01;;;;;;;30.38;14.70;;;;;;;3.41;100.00;90217.34;5012430;28;20076;-64
2022/01/05 07:14:27;;;;;;;24.95;14.18;;;;;;;3.56;100.00;90225.81;5012398;28;20084;-62
2022/01/05 07:16:52;;;;;;;34.25;20.23;;;;;;;3.73;100.00;90230.59;5012346;28;20080;-64
2022/01/05 07:19:20;;;;;;;34.13;20.13;;;;;;;3.93;100.00;90219.00;5012203;28;20105;-63
2022/01/05 07:21:46;;;;;;;33.75;20.58;;;;;;;4.03;100.00;90224.13;5012310;28;20225;-63
2022/01/05 07:24:16;;;;;;;35.85;18.80;;;;;;;4.88;100.00;90217.72;5012127;28;20103;-63
2022/01/05 07:26:41;;;;;;;24.90;15.25;;;;;;;7.93;82.23;90233.63;5012202;28;20026;-63
2022/01/05 07:29:07;;;;;;;24.70;15.98;;;;;;;11.38;64.48;90234.81;5012166;28;20034;-63
2022/01/05 07:31:33;;;;;;;27.75;17.20;;;;;;;14.64;53.11;90235.47;5012073;28;20150;-64
2022/01/05 07:33:59;;;;;;;23.08;11.63;;;;;;;16.25;46.87;90239.28;5012014;28;20052;-62
2022/01/05 07:36:24;;;;;;;18.38;12.38;;;;;;;17.27;43.82;90239.22;5012061;28;20038;-63
2022/01/05 07:38:50;;;;;;;20.25;14.27;;;;;;;18.13;42.42;90240.94;5011907;28;20217;-63
2022/01/05 07:41:15;;;;;;;21.60;13.55;;;;;;;17.80;41.09;90239.84;5011888;28;20060;-63
2022/01/05 07:43:41;;;;;;;16.40;12.00;;;;;;;14.24;47.04;90241.03;5011965;28;20066;-63
2022/01/05 07:46:06;;;;;;;20.17;13.43;;;;;;;11.79;52.32;90241.09;5011742;28;20496;-63
2022/01/05 07:48:32;;;;;;;13.13;10.13;;;;;;;10.39;56.72;90242.72;5011841;28;20084;-63
2022/01/05 07:50:58;;;;;;;16.13;10.23;;;;;;;12.10;54.35;90231.78;5010779;28;20049;-63
2022/01/05 07:53:24;;;;;;;7.38;6.10;;;;;;;13.30;51.44;90226.50;5011630;28;20022;-63
2022/01/05 07:55:49;;;;;;;11.18;7.88;;;;;;;14.78;49.00;90248.38;5011854;28;20113;-63
2022/01/05 07:58:15;;;;;;;8.95;6.32;;;;;;;17.88;42.93;90240.72;5011611;28;20484;-63
2022/01/05 08:00:40;;;;;;;9.40;7.20;;;;;;;19.37;39.88;90251.84;5011644;28;20416;-63
2022/01/05 08:03:06;;;;;;;10.10;6.80;;;;;;;20.04;38.27;90244.03;5011662;28;20472;-63
2022/01/05 08:05:31;;;;;;;11.55;5.68;;;;;;;21.81;36.22;90245.06;5011415;28;20041;-63
2022/01/05 08:07:57;;;;;;;6.90;4.80;;;;;;;20.98;36.31;90247.56;5011562;28;20038;-63
2022/01/05 08:10:23;;;;;;;7.70;6.07;;;;;;;21.81;35.38;90249.69;5011467;28;20117;-63
2022/01/05 08:12:48;;;;;;;17.67;11.88;;;;;;;22.18;35.17;90254.56;5011312;28;20427;-63
2022/01/05 08:15:15;;;;;;;10.88;6.93;;;;;;;23.50;34.10;90251.59;5011334;28;20072;-63
2022/01/05 08:17:44;;;;;;;6.68;5.70;;;;;;;22.01;34.95;90258.13;5011418;28;20050;-63
2022/01/05 08:20:13;;;;;;;8.52;7.00;;;;;;;22.78;34.41;90261.53;5011425;28;20585;-63
2022/01/05 08:22:40;;;;;;;12.40;6.85;;;;;;;21.15;36.11;90252.97;5011256;28;20041;-63
2022/01/05 08:25:10;;;;;;;52.60;34.03;;;;;;;21.85;35.53;90260.50;5011575;28;20046;-63
2022/01/05 08:27:37;;;;;;;8.68;5.47;;;;;;;23.15;32.43;90260.88;5011338;28;20124;-63
2022/01/05 08:30:05;;;;;;;11.10;5.45;;;;;;;21.86;33.83;90256.63;5011382;28;20037;-63
2022/01/05 08:32:32;;;;;;;9.98;6.20;;;;;;;22.05;34.07;90256.19;5010180;28;20524;-63
2022/01/05 08:34:57;;;;;;;10.80;6.50;;;;;;;23.58;32.40;90261.25;5011366;28;20450;-65
2022/01/05 08:37:23;;;;;;;12.35;6.05;;;;;;;24.47;31.09;90259.44;5011286;28;20563;-65
2022/01/05 08:39:50;;;;;;;10.35;5.82;;;;;;;24.92;30.46;90251.75;5011183;28;20037;-65
2022/01/05 08:42:16;;;;;;;12.13;7.20;;;;;;;23.66;31.71;90253.03;5011230;28;20479;-64
2022/01/05 08:44:42;;;;;;;16.92;10.90;;;;;;;23.50;31.82;90256.25;5011396;28;20034;-65
2022/01/05 08:47:08;;;;;;;11.00;6.50;;;;;;;22.83;32.56;90253.00;5011206;28;20030;-64
2022/01/05 08:49:34;;;;;;;9.52;6.40;;;;;;;24.27;30.81;90266.66;5011090;28;20117;-65
2022/01/05 08:52:00;;;;;;;11.70;6.45;;;;;;;24.98;30.35;90257.50;5011077;28;20060;-65
2022/01/05 08:54:26;;;;;;;52.03;7.72;;;;;;;24.95;30.96;90258.34;5010981;28;20466;-65
2022/01/05 08:56:54;;;;;;;12.85;5.63;;;;;;;25.50;30.17;90262.50;5011135;28;20042;-64
2022/01/05 08:59:20;;;;;;;6.50;5.07;;;;;;;25.38;30.23;90245.56;5011281;28;20042;-64
2022/01/05 09:01:45;;;;;;;7.30;4.90;;;;;;;26.42;28.34;90247.13;5008416;28;20034;-66
2022/01/05 09:04:11;;;;;;;9.30;5.20;;;;;;;24.87;30.23;90246.00;5011924;28;20034;-64
2022/01/05 09:06:36;;;;;;;6.63;4.55;;;;;;;25.00;30.09;90245.06;5014463;28;20050;-65
2022/01/05 09:09:03;;;;;;;9.32;5.40;;;;;;;25.07;30.34;90239.47;5014512;28;20021;-66
2022/01/05 09:11:29;;;;;;;9.25;4.20;;;;;;;25.71;28.94;90231.41;5014512;28;20049;-65
2022/01/05 09:13:54;;;;;;;6.60;4.60;;;;;;;25.85;28.81;90225.69;5014479;28;20403;-65
2022/01/05 09:16:20;;;;;;;7.25;4.65;;;;;;;25.80;28.75;90226.94;5014261;28;20129;-65
2022/01/05 09:18:46;;;;;;;7.18;4.82;;;;;;;26.40;28.09;90227.69;5014811;28;20114;-65
2022/01/05 09:21:12;;;;;;;9.52;3.97;;;;;;;25.43;29.92;90219.84;5014459;28;20520;-65
2022/01/05 09:23:38;;;;;;;6.10;4.20;;;;;;;24.30;30.73;90227.81;5014338;28;20041;-66
2022/01/05 09:26:04;;;;;;;67.00;7.03;;;;;;;24.94;30.41;90226.88;5014252;28;20034;-65
2022/01/05 09:28:29;;;;;;;8.60;5.32;;;;;;;26.18;28.96;90216.41;5014402;28;20042;-65
2022/01/05 09:30:55;;;;;;;10.18;4.60;;;;;;;24.56;30.60;90208.00;5013808;28;20427;-66
2022/01/05 09:33:22;;;;;;;18.90;15.25;;;;;;;25.61;29.37;90206.66;5014112;28;20037;-67
2022/01/05 09:35:50;;;;;;;10.98;8.30;;;;;;;26.28;29.57;90212.72;5013972;28;20049;-68
2022/01/05 09:41:56;;;;;;;25.45;11.88;;;;;;;27.11;27.20;90206.19;5014078;28;20514;-68
2022/01/05 09:44:10;;;;;;;154.80;12.07;;;;;;;26.11;28.87;90194.00;5014157;28;20041;-67
2022/01/05 09:47:00;;;;;;;6.95;4.63;;;;;;;25.92;29.85;90185.44;5013526;28;20034;-67
2022/01/05 09:49:36;;;;;;;26.60;9.27;;;;;;;26.54;28.59;90185.69;5013918;28;20025;-67
2022/01/05 09:52:08;;;;;;;94.78;57.15;;;;;;;27.41;27.33;90183.19;5013762;28;20034;-67
2022/01/05 09:54:35;;;;;;;6.10;4.40;;;;;;;27.30;28.00;90179.97;5013799;28;20566;-67
2022/01/05 09:57:01;;;;;;;8.57;4.25;;;;;;;28.49;26.40;90181.78;5014019;28;20068;-67
2022/01/05 09:59:29;;;;;;;6.97;4.45;;;;;;;28.15;26.67;90179.66;5013350;28;20065;-67
2022/01/05 10:01:54;;;;;;;5.85;4.80;;;;;;;27.63;26.31;90173.28;5013729;28;20030;-67
2022/01/05 10:04:20;;;;;;;10.70;5.90;;;;;;;24.89;29.48;90168.22;5013666;28;20104;-67
2022/01/05 10:06:47;;;;;;;8.73;4.80;;;;;;;24.91;29.59;90170.53;5012287;28;20053;-67
2022/01/05 10:09:14;;;;;;;9.65;6.57;;;;;;;26.30;27.86;90165.94;5013627;28;20125;-67
2022/01/05 10:11:40;;;;;;;9.13;5.68;;;;;;;26.09;28.53;90150.06;5013526;28;20041;-67
2022/01/05 10:14:06;;;;;;;18.15;6.25;;;;;;;23.93;30.24;90152.59;5012160;28;20042;-67
2022/01/05 10:16:32;;;;;;;22.33;6.40;;;;;;;25.53;28.88;90155.44;5013087;28;20099;-68
2022/01/05 10:18:58;;;;;;;22.80;9.20;;;;;;;26.59;28.50;90152.44;5013415;28;20045;-67
2022/01/05 10:21:34;;;;;;;47.83;11.45;;;;;;;27.62;27.29;90152.59;5013430;28;20042;-68
2022/01/05 10:23:59;;;;;;;11.60;6.93;;;;;;;27.52;26.75;90150.16;5013075;28;20045;-67
2022/01/05 10:26:29;;;;;;;17.27;9.93;;;;;;;26.22;28.15;90140.78;5013535;28;20496;-68
2022/01/05 10:29:00;;;;;;;12.57;7.40;;;;;;;25.91;29.08;90145.75;5013023;28;20503;-68
2022/01/05 10:31:30;;;;;;;39.63;7.75;;;;;;;27.27;27.81;90142.59;5013127;28;20055;-68
2022/01/05 10:33:56;;;;;;;45.78;19.23;;;;;;;28.22;26.94;90138.41;5013078;28;20050;-68
2022/01/05 10:36:22;;;;;;;28.58;18.63;;;;;;;27.64;26.89;90136.56;5013122;28;20041;-68
2022/01/05 10:38:58;;;;;;;29.13;15.13;;;;;;;27.71;27.28;90141.03;5013115;28;20115;-66
2022/01/05 10:41:26;;;;;;;20.23;13.02;;;;;;;29.11;25.69;90122.72;5013070;28;20064;-68
2022/01/05 10:44:10;;;;;;;25.10;11.20;;;;;;;29.94;24.33;90126.91;5012296;28;20049;-65
2022/01/05 10:46:44;;;;;;;30.92;17.73;;;;;;;28.53;25.25;90125.75;5012726;28;20451;-67
2022/01/05 10:49:21;;;;;;;19.92;10.35;;;;;;;28.48;25.22;90126.31;5012770;28;20037;-73
2022/01/05 10:51:46;;;;;;;59.88;13.65;;;;;;;28.44;25.46;90124.88;5012684;28;20048;-71
2022/01/05 10:54:20;;;;;;;17.60;10.23;;;;;;;27.30;26.31;90107.03;5012621;28;20038;-71
2022/01/05 10:56:47;;;;;;;12.43;7.32;;;;;;;25.85;27.76;90114.72;5012652;28;20038;-71
2022/01/05 10:59:16;;;;;;;6.95;4.85;;;;;;;25.35;27.09;90110.25;5012310;28;20064;-71
2022/01/05 11:01:42;;;;;;;14.68;8.40;;;;;;;25.39;28.59;90113.69;5012635;28;20033;-72
2022/01/05 11:04:19;;;;;;;14.38;8.88;;;;;;;25.75;27.16;90104.06;5012264;28;20045;-73
2022/01/05 11:06:57;;;;;;;75.55;12.07;;;;;;;26.05;27.16;90116.66;5012133;28;20087;-74
2022/01/05 11:09:23;;;;;;;29.52;9.43;;;;;;;25.76;27.21;90106.38;5012383;28;20042;-75
2022/01/05 11:11:50;;;;;;;18.10;9.57;;;;;;;25.43;28.89;90107.41;5012387;28;20045;-73
2022/01/05 11:14:32;;;;;;;47.13;11.82;;;;;;;26.41;26.84;90101.03;5011857;28;20046;-74
2022/01/05 11:17:03;;;;;;;36.25;9.32;;;;;;;24.31;28.34;90104.31;5012370;28;20041;-74
2022/01/05 11:19:35;;;;;;;101.57;14.38;;;;;;;24.72;28.88;90093.91;5012645;28;20080;-76
2022/01/05 11:22:08;;;;;;;19.92;8.15;;;;;;;25.49;27.81;90105.72;5012555;28;20523;-67
2022/01/05 11:24:46;;;;;;;24.92;7.53;;;;;;;28.36;24.92;90098.94;5012361;28;20048;-68
2022/01/05 11:27:20;;;;;;;14.27;6.65;;;;;;;28.60;24.75;90094.66;5012038;28;20470;-68
2022/01/05 11:29:47;;;;;;;24.55;8.77;;;;;;;29.41;24.57;90096.66;5011772;28;20046;-68
2022/01/05 11:32:15;;;;;;;5.80;4.03;;;;;;;29.85;24.38;90093.97;5012036;28;20084;-68